createdAt,value
2019-02-28T00:00:29.387Z,6.77
2019-02-28T00:01:29.403Z,6.71
2019-02-28T00:02:29.371Z,6.71
2019-02-28T00:03:29.348Z,6.71
2019-02-28T00:04:32.285Z,6.71
2019-02-28T00:05:29.417Z,6.77
2019-02-28T00:06:29.319Z,6.77
2019-02-28T00:07:29.329Z,6.73
2019-02-28T00:08:29.322Z,6.76
2019-02-28T00:09:29.279Z,6.77
2019-02-28T00:11:02.015Z,6.88
2019-02-28T00:12:00.933Z,6.88
2019-02-28T00:13:30.613Z,6.88
2019-02-28T00:14:30.579Z,6.89
2019-02-28T00:16:03.398Z,6.74
2019-02-28T00:17:01.251Z,6.66
2019-02-28T00:18:31.987Z,6.66
2019-02-28T00:19:31.947Z,6.70
2019-02-28T00:21:06.067Z,6.52
2019-02-28T00:22:02.621Z,6.52
2019-02-28T00:23:33.335Z,6.48
2019-02-28T00:24:33.313Z,6.44
2019-02-28T00:26:03.997Z,6.48
2019-02-28T00:27:03.991Z,6.44
2019-02-28T00:28:34.716Z,6.37
2019-02-28T00:29:34.683Z,6.34
2019-02-28T00:31:05.363Z,6.27
2019-02-28T00:32:05.359Z,6.17
2019-02-28T00:33:05.341Z,6.15
2019-02-28T00:34:05.604Z,6.09
2019-02-28T00:35:05.320Z,6.06
2019-02-28T00:36:05.303Z,6.09
2019-02-28T00:37:05.306Z,6.01
2019-02-28T00:38:05.297Z,5.94
2019-02-28T00:39:05.287Z,5.97
2019-02-28T00:40:38.482Z,5.89
2019-02-28T00:41:35.939Z,6.00
2019-02-28T00:43:06.651Z,6.06
2019-02-28T00:44:06.631Z,6.08
2019-02-28T00:45:37.425Z,6.00
2019-02-28T00:46:37.279Z,5.99
2019-02-28T00:48:07.953Z,6.15
2019-02-28T00:49:07.947Z,6.15
2019-02-28T00:50:38.638Z,6.18
2019-02-28T00:51:38.628Z,6.15
2019-02-28T00:53:09.299Z,6.21
2019-02-28T00:54:09.700Z,6.18
2019-02-28T00:55:09.265Z,6.17
2019-02-28T00:56:09.252Z,6.08
2019-02-28T00:57:09.239Z,6.08
2019-02-28T00:58:09.240Z,6.21
2019-02-28T00:59:09.211Z,6.21
2019-02-28T01:00:09.199Z,6.19
2019-02-28T01:01:11.551Z,6.27
2019-02-28T01:02:09.186Z,6.22
2019-02-28T01:03:09.168Z,6.33
2019-02-28T01:04:09.189Z,6.51
2019-02-28T01:05:09.181Z,6.58
2019-02-28T01:06:10.565Z,6.80
2019-02-28T01:07:09.178Z,6.88
2019-02-28T01:08:09.135Z,6.88
2019-02-28T01:09:09.111Z,6.91
2019-02-28T01:10:09.109Z,6.98
2019-02-28T01:11:10.367Z,6.94
2019-02-28T01:12:09.083Z,6.91
2019-02-28T01:13:09.083Z,6.92
2019-02-28T01:14:09.058Z,6.95
2019-02-28T01:15:10.076Z,6.89
2019-02-28T01:16:09.055Z,6.92
2019-02-28T01:17:09.043Z,6.97
2019-02-28T01:18:09.084Z,6.95
2019-02-28T01:19:10.087Z,7.03
2019-02-28T01:20:08.996Z,7.12
2019-02-28T01:21:08.978Z,7.03
2019-02-28T01:22:08.968Z,7.13
2019-02-28T01:23:08.959Z,7.24
2019-02-28T01:24:08.950Z,7.42
2019-02-28T01:25:08.936Z,7.63
2019-02-28T01:26:11.733Z,7.74
2019-02-28T01:27:08.913Z,7.83
2019-02-28T01:28:08.905Z,7.74
2019-02-28T01:29:08.897Z,7.83
2019-02-28T01:30:08.894Z,7.85
2019-02-28T01:31:11.563Z,7.85
2019-02-28T01:32:08.867Z,7.86
2019-02-28T01:33:08.847Z,7.85
2019-02-28T01:34:39.601Z,7.87
2019-02-28T01:35:40.746Z,7.87
2019-02-28T01:37:11.202Z,7.83
2019-02-28T01:38:11.196Z,7.90
2019-02-28T01:39:41.889Z,8.00
2019-02-28T01:40:41.854Z,8.16
2019-02-28T01:42:12.565Z,8.22
2019-02-28T01:43:12.529Z,8.25
2019-02-28T01:44:43.239Z,8.41
2019-02-28T01:45:44.232Z,8.47
2019-02-28T01:47:13.935Z,8.48
2019-02-28T01:48:13.907Z,8.61
2019-02-28T01:49:13.912Z,8.63
2019-02-28T01:50:13.881Z,8.73
2019-02-28T01:51:13.867Z,8.66
2019-02-28T01:52:13.868Z,8.76
2019-02-28T01:53:18.740Z,8.77
2019-02-28T01:54:14.842Z,8.70
2019-02-28T01:55:13.825Z,8.65
2019-02-28T01:56:13.807Z,8.61
2019-02-28T01:57:13.797Z,8.59
2019-02-28T01:58:16.290Z,8.68
2019-02-28T01:59:13.795Z,8.63
2019-02-28T02:00:13.771Z,8.66
2019-02-28T02:01:13.758Z,8.63
2019-02-28T02:02:13.749Z,8.56
2019-02-28T02:03:13.743Z,8.52
2019-02-28T02:04:13.740Z,8.62
2019-02-28T02:05:16.976Z,8.62
2019-02-28T02:06:13.711Z,8.63
2019-02-28T02:07:13.707Z,8.71
2019-02-28T02:08:13.702Z,8.70
2019-02-28T02:09:13.689Z,8.77
2019-02-28T02:10:13.665Z,8.71
2019-02-28T02:11:13.657Z,8.80
2019-02-28T02:12:13.667Z,8.80
2019-02-28T02:13:13.631Z,8.76
2019-02-28T02:14:13.620Z,8.83
2019-02-28T02:15:16.789Z,8.86
2019-02-28T02:16:13.593Z,8.77
2019-02-28T02:17:13.579Z,8.79
2019-02-28T02:18:13.576Z,8.79
2019-02-28T02:19:17.584Z,8.65
2019-02-28T02:20:13.549Z,8.66
2019-02-28T02:21:13.545Z,8.56
2019-02-28T02:22:13.550Z,8.53
2019-02-28T02:23:17.828Z,8.59
2019-02-28T02:24:14.506Z,8.62
2019-02-28T02:25:13.521Z,8.55
2019-02-28T02:26:13.494Z,8.62
2019-02-28T02:27:16.330Z,8.61
2019-02-28T02:28:14.469Z,8.53
2019-02-28T02:29:13.455Z,8.66
2019-02-28T02:30:15.237Z,8.55
2019-02-28T02:31:13.433Z,8.59
2019-02-28T02:32:13.426Z,8.65
2019-02-28T02:33:14.432Z,8.53
2019-02-28T02:34:13.399Z,8.61
2019-02-28T02:35:13.391Z,8.63
2019-02-28T02:36:16.408Z,8.61
2019-02-28T02:37:13.384Z,8.65
2019-02-28T02:38:13.396Z,8.61
2019-02-28T02:39:17.508Z,8.56
2019-02-28T02:40:13.349Z,8.70
2019-02-28T02:41:13.327Z,8.70
2019-02-28T02:42:13.314Z,8.63
2019-02-28T02:43:13.306Z,8.63
2019-02-28T02:44:13.301Z,8.56
2019-02-28T02:45:13.282Z,8.62
2019-02-28T02:46:19.892Z,8.63
2019-02-28T02:47:14.263Z,8.65
2019-02-28T02:48:13.451Z,8.55
2019-02-28T02:49:18.573Z,8.47
2019-02-28T02:50:14.240Z,8.66
2019-02-28T02:51:13.234Z,8.62
2019-02-28T02:52:13.202Z,8.66
2019-02-28T02:53:13.194Z,8.62
2019-02-28T02:54:17.916Z,8.66
2019-02-28T02:55:14.186Z,8.55
2019-02-28T02:56:13.187Z,8.63
2019-02-28T02:57:14.253Z,8.59
2019-02-28T02:58:13.136Z,8.65
2019-02-28T02:59:13.130Z,8.53
2019-02-28T03:00:14.812Z,8.63
2019-02-28T03:01:13.125Z,8.53
2019-02-28T03:02:13.113Z,8.66
2019-02-28T03:03:13.079Z,8.62
2019-02-28T03:04:21.403Z,8.62
2019-02-28T03:05:14.072Z,8.56
2019-02-28T03:06:14.406Z,8.59
2019-02-28T03:07:43.809Z,8.62
2019-02-28T03:08:43.716Z,8.62
2019-02-28T03:10:17.281Z,8.65
2019-02-28T03:11:14.403Z,8.58
2019-02-28T03:12:52.469Z,8.59
2019-02-28T03:13:45.085Z,8.55
2019-02-28T03:15:15.741Z,8.52
2019-02-28T03:16:15.714Z,8.48
2019-02-28T03:17:48.353Z,8.53
2019-02-28T03:18:46.400Z,8.50
2019-02-28T03:20:17.093Z,8.61
2019-02-28T03:21:17.063Z,8.61
2019-02-28T03:22:47.745Z,8.58
2019-02-28T03:23:47.712Z,8.44
2019-02-28T03:25:18.404Z,8.47
2019-02-28T03:26:18.382Z,8.52
2019-02-28T03:27:55.098Z,8.43
2019-02-28T03:28:50.022Z,8.55
2019-02-28T03:30:29.028Z,8.45
2019-02-28T03:31:20.700Z,8.40
2019-02-28T03:32:50.408Z,8.41
2019-02-28T03:33:50.344Z,8.36
2019-02-28T03:34:58.090Z,8.30
2019-02-28T03:35:51.341Z,8.37
2019-02-28T03:36:55.250Z,8.28
2019-02-28T03:37:51.307Z,8.36
2019-02-28T03:38:50.296Z,8.38
2019-02-28T03:40:21.017Z,8.37
2019-02-28T03:41:20.964Z,8.37
2019-02-28T03:42:51.645Z,8.40
2019-02-28T03:43:51.621Z,8.38
2019-02-28T03:45:22.293Z,8.37
2019-02-28T03:46:22.291Z,8.36
2019-02-28T03:47:58.523Z,8.33
2019-02-28T03:48:53.968Z,8.30
2019-02-28T03:50:23.644Z,8.26
2019-02-28T03:51:28.431Z,8.20
2019-02-28T03:52:55.298Z,8.25
2019-02-28T03:53:55.927Z,8.19
2019-02-28T03:54:55.268Z,8.19
2019-02-28T03:55:55.254Z,8.28
2019-02-28T03:56:55.246Z,8.16
2019-02-28T03:57:55.229Z,8.20
2019-02-28T03:58:55.216Z,8.22
2019-02-28T03:59:56.704Z,8.23
2019-02-28T04:00:55.215Z,8.19
2019-02-28T04:01:55.197Z,8.19
2019-02-28T04:02:58.709Z,8.11
2019-02-28T04:03:55.164Z,8.16
2019-02-28T04:04:55.150Z,8.18
2019-02-28T04:05:55.156Z,8.18
2019-02-28T04:06:55.169Z,8.16
2019-02-28T04:07:55.212Z,8.02
2019-02-28T04:08:55.104Z,8.18
2019-02-28T04:09:55.110Z,8.15
2019-02-28T04:10:55.902Z,8.08
2019-02-28T04:11:55.086Z,8.08
2019-02-28T04:12:55.064Z,8.18
2019-02-28T04:13:56.025Z,8.18
2019-02-28T04:14:55.068Z,8.16
2019-02-28T04:16:07.458Z,8.05
2019-02-28T04:16:56.032Z,8.10
2019-02-28T04:17:55.008Z,8.15
2019-02-28T04:18:55.000Z,8.23
2019-02-28T04:20:00.058Z,8.18
2019-02-28T04:20:55.981Z,8.02
2019-02-28T04:21:54.975Z,7.98
2019-02-28T04:22:58.852Z,7.98
2019-02-28T04:23:54.955Z,8.00
2019-02-28T04:24:54.942Z,7.93
2019-02-28T04:25:56.970Z,8.01
2019-02-28T04:26:54.909Z,8.04
2019-02-28T04:27:54.908Z,8.00
2019-02-28T04:28:55.048Z,7.89
2019-02-28T04:29:54.877Z,7.82
2019-02-28T04:30:54.872Z,7.93
2019-02-28T04:31:54.875Z,7.93
2019-02-28T04:33:01.188Z,7.95
2019-02-28T04:33:55.831Z,7.93
2019-02-28T04:34:54.835Z,7.87
2019-02-28T04:35:56.875Z,7.93
2019-02-28T04:36:55.802Z,7.90
2019-02-28T04:37:54.798Z,7.87
2019-02-28T04:38:54.787Z,7.89
2019-02-28T04:39:54.780Z,7.95
2019-02-28T04:40:54.780Z,7.89
2019-02-28T04:41:54.753Z,7.93
2019-02-28T04:42:54.741Z,7.90
2019-02-28T04:43:54.721Z,7.83
2019-02-28T04:44:54.730Z,7.97
2019-02-28T04:45:57.720Z,7.95
2019-02-28T04:46:54.702Z,7.86
2019-02-28T04:47:54.731Z,7.98
2019-02-28T04:48:54.690Z,7.85
2019-02-28T04:49:57.020Z,7.87
2019-02-28T04:50:54.664Z,7.95
2019-02-28T04:51:54.641Z,7.85
2019-02-28T04:52:54.631Z,7.86
2019-02-28T04:53:54.621Z,7.87
2019-02-28T04:54:54.622Z,7.82
2019-02-28T04:55:54.595Z,7.90
2019-02-28T04:56:54.604Z,7.90
2019-02-28T04:57:54.575Z,7.83
2019-02-28T04:58:56.431Z,7.85
2019-02-28T04:59:54.572Z,7.86
2019-02-28T05:00:54.543Z,7.85
2019-02-28T05:01:54.538Z,7.80
2019-02-28T05:02:55.079Z,7.85
2019-02-28T05:03:54.516Z,7.79
2019-02-28T05:04:54.497Z,7.79
2019-02-28T05:05:54.487Z,7.71
2019-02-28T05:06:55.309Z,7.72
2019-02-28T05:07:54.467Z,7.79
2019-02-28T05:08:54.461Z,7.82
2019-02-28T05:09:54.467Z,7.75
2019-02-28T05:10:55.937Z,7.77
2019-02-28T05:11:54.444Z,7.86
2019-02-28T05:12:54.422Z,7.71
2019-02-28T05:13:54.413Z,7.79
2019-02-28T05:14:55.232Z,7.77
2019-02-28T05:15:54.378Z,7.63
2019-02-28T05:16:54.369Z,7.64
2019-02-28T05:17:55.870Z,7.61
2019-02-28T05:18:54.357Z,7.58
2019-02-28T05:19:55.193Z,7.61
2019-02-28T05:21:25.034Z,7.68
2019-02-28T05:22:27.598Z,7.63
2019-02-28T05:23:56.701Z,7.63
2019-02-28T05:24:56.659Z,7.60
2019-02-28T05:26:27.404Z,7.60
2019-02-28T05:27:27.362Z,7.58
2019-02-28T05:28:58.062Z,7.50
2019-02-28T05:29:58.035Z,7.53
2019-02-28T05:31:28.754Z,7.52
2019-02-28T05:32:28.737Z,7.49
2019-02-28T05:33:59.417Z,7.49
2019-02-28T05:34:59.388Z,7.46
2019-02-28T05:36:30.062Z,7.43
2019-02-28T05:37:30.060Z,7.46
2019-02-28T05:39:00.757Z,7.45
2019-02-28T05:40:05.589Z,7.50
2019-02-28T05:41:32.413Z,7.45
2019-02-28T05:42:32.384Z,7.43
2019-02-28T05:44:05.861Z,7.43
2019-02-28T05:45:03.070Z,7.45
2019-02-28T05:46:33.780Z,7.43
2019-02-28T05:47:44.752Z,7.49
2019-02-28T05:49:08.738Z,7.40
2019-02-28T05:50:05.419Z,7.39
2019-02-28T05:51:35.556Z,7.37
2019-02-28T05:52:35.517Z,7.39
2019-02-28T05:54:06.208Z,7.43
2019-02-28T05:55:06.182Z,7.37
2019-02-28T05:56:36.922Z,7.32
2019-02-28T05:57:39.405Z,7.32
2019-02-28T05:59:08.562Z,7.37
2019-02-28T06:00:08.546Z,7.39
2019-02-28T06:01:39.220Z,7.31
2019-02-28T06:02:39.220Z,7.34
2019-02-28T06:04:09.873Z,7.32
2019-02-28T06:05:11.820Z,7.39
2019-02-28T06:06:09.864Z,7.25
2019-02-28T06:07:09.861Z,7.24
2019-02-28T06:08:09.829Z,7.24
2019-02-28T06:09:10.363Z,7.31
2019-02-28T06:10:09.815Z,7.30
2019-02-28T06:11:09.802Z,7.32
2019-02-28T06:12:10.210Z,7.28
2019-02-28T06:13:09.776Z,7.32
2019-02-28T06:14:09.765Z,7.34
2019-02-28T06:15:09.757Z,7.32
2019-02-28T06:16:12.316Z,7.30
2019-02-28T06:17:09.731Z,7.28
2019-02-28T06:18:09.740Z,7.28
2019-02-28T06:19:09.723Z,7.30
2019-02-28T06:20:09.705Z,7.31
2019-02-28T06:21:10.421Z,7.34
2019-02-28T06:22:09.690Z,7.31
2019-02-28T06:23:10.171Z,7.31
2019-02-28T06:24:12.782Z,7.40
2019-02-28T06:25:09.673Z,7.27
2019-02-28T06:26:09.643Z,7.30
2019-02-28T06:27:09.645Z,7.40
2019-02-28T06:28:09.641Z,7.34
2019-02-28T06:29:09.610Z,7.23
2019-02-28T06:30:09.644Z,7.32
2019-02-28T06:31:09.590Z,7.25
2019-02-28T06:32:09.574Z,7.25
2019-02-28T06:33:09.574Z,7.28
2019-02-28T06:34:09.561Z,7.40
2019-02-28T06:35:09.560Z,7.37
2019-02-28T06:36:09.547Z,7.31
2019-02-28T06:37:09.525Z,7.30
2019-02-28T06:38:09.524Z,7.35
2019-02-28T06:39:09.518Z,7.45
2019-02-28T06:40:09.509Z,7.46
2019-02-28T06:41:09.482Z,7.40
2019-02-28T06:42:11.858Z,7.48
2019-02-28T06:43:09.459Z,7.46
2019-02-28T06:44:09.453Z,7.50
2019-02-28T06:45:09.450Z,7.63
2019-02-28T06:46:09.469Z,7.69
2019-02-28T06:47:11.278Z,7.64
2019-02-28T06:48:09.415Z,7.63
2019-02-28T06:49:09.390Z,7.67
2019-02-28T06:50:09.393Z,7.69
2019-02-28T06:51:09.385Z,7.68
2019-02-28T06:52:09.369Z,7.63
2019-02-28T06:53:09.352Z,7.71
2019-02-28T06:54:09.347Z,7.69
2019-02-28T06:55:12.581Z,7.75
2019-02-28T06:56:09.318Z,7.75
2019-02-28T06:57:09.314Z,7.80
2019-02-28T06:58:09.312Z,7.89
2019-02-28T06:59:09.294Z,7.92
2019-02-28T07:00:10.372Z,8.01
2019-02-28T07:01:09.290Z,7.87
2019-02-28T07:02:09.270Z,8.01
2019-02-28T07:03:09.256Z,8.07
2019-02-28T07:04:11.517Z,8.16
2019-02-28T07:05:10.223Z,8.25
2019-02-28T07:06:09.221Z,8.18
2019-02-28T07:07:10.219Z,8.34
2019-02-28T07:08:09.189Z,8.41
2019-02-28T07:09:09.189Z,8.55
2019-02-28T07:10:09.719Z,8.56
2019-02-28T07:11:09.164Z,8.58
2019-02-28T07:12:09.149Z,8.76
2019-02-28T07:13:09.145Z,8.76
2019-02-28T07:14:12.840Z,8.84
2019-02-28T07:15:09.152Z,8.86
2019-02-28T07:16:09.107Z,8.89
2019-02-28T07:17:10.792Z,9.01
2019-02-28T07:18:09.082Z,9.17
2019-02-28T07:19:09.075Z,9.14
2019-02-28T07:20:09.666Z,9.23
2019-02-28T07:21:09.077Z,9.39
2019-02-28T07:22:09.041Z,9.60
2019-02-28T07:23:09.034Z,9.86
2019-02-28T07:24:09.022Z,10.07
2019-02-28T07:25:09.451Z,10.34
2019-02-28T07:26:09.003Z,10.76
2019-02-28T07:27:09.000Z,11.03
2019-02-28T07:28:09.000Z,11.40
2019-02-28T07:29:11.977Z,11.65
2019-02-28T07:30:08.964Z,12.23
2019-02-28T07:31:08.940Z,12.68
2019-02-28T07:32:08.943Z,12.95
2019-02-28T07:33:10.602Z,13.59
2019-02-28T07:34:08.917Z,13.87
2019-02-28T07:35:08.896Z,14.51
2019-02-28T07:36:10.356Z,14.78
2019-02-28T07:37:08.922Z,15.03
2019-02-28T07:38:08.879Z,15.32
2019-02-28T07:39:08.862Z,15.36
2019-02-28T07:40:08.840Z,15.75
2019-02-28T07:41:08.838Z,15.69
2019-02-28T07:42:08.821Z,15.94
2019-02-28T07:43:12.053Z,15.92
2019-02-28T07:44:08.800Z,16.07
2019-02-28T07:45:08.809Z,16.09
2019-02-28T07:46:08.943Z,16.02
2019-02-28T07:47:08.775Z,16.73
2019-02-28T07:48:39.478Z,16.58
2019-02-28T07:49:39.435Z,16.31
2019-02-28T07:51:10.140Z,16.64
2019-02-28T07:52:10.108Z,17.14
2019-02-28T07:53:10.114Z,17.40
2019-02-28T07:54:12.619Z,17.41
2019-02-28T07:55:41.788Z,17.33
2019-02-28T07:56:43.151Z,17.51
2019-02-28T07:58:13.447Z,17.74
2019-02-28T07:59:13.433Z,17.19
2019-02-28T08:00:17.128Z,17.01
2019-02-28T08:01:13.403Z,17.22
2019-02-28T08:02:13.397Z,17.49
2019-02-28T08:03:13.377Z,17.41
2019-02-28T08:04:18.045Z,17.81
2019-02-28T08:05:14.364Z,18.11
2019-02-28T08:06:13.363Z,18.52
2019-02-28T08:07:14.888Z,18.32
2019-02-28T08:08:13.325Z,18.27
2019-02-28T08:09:13.321Z,18.07
2019-02-28T08:10:15.988Z,18.29
2019-02-28T08:11:13.290Z,17.95
2019-02-28T08:12:13.285Z,18.32
2019-02-28T08:13:13.271Z,18.33
2019-02-28T08:14:13.261Z,17.89
2019-02-28T08:15:13.708Z,17.08
2019-02-28T08:16:13.267Z,17.14
2019-02-28T08:17:13.229Z,17.43
2019-02-28T08:18:15.762Z,17.95
2019-02-28T08:19:14.210Z,17.86
2019-02-28T08:20:13.199Z,17.66
2019-02-28T08:21:13.198Z,17.86
2019-02-28T08:22:13.173Z,17.79
2019-02-28T08:23:13.170Z,17.56
2019-02-28T08:24:13.156Z,17.36
2019-02-28T08:25:13.171Z,17.86
2019-02-28T08:26:15.464Z,18.14
2019-02-28T08:27:14.141Z,18.78
2019-02-28T08:28:13.117Z,18.70
2019-02-28T08:29:13.151Z,18.72
2019-02-28T08:30:13.091Z,19.06
2019-02-28T08:31:13.087Z,18.88
2019-02-28T08:32:13.070Z,18.78
2019-02-28T08:33:16.370Z,19.40
2019-02-28T08:34:13.052Z,19.10
2019-02-28T08:35:13.036Z,19.58
2019-02-28T08:36:13.029Z,19.76
2019-02-28T08:37:13.024Z,19.61
2019-02-28T08:38:13.016Z,19.76
2019-02-28T08:39:13.010Z,19.11
2019-02-28T08:40:15.789Z,19.58
2019-02-28T08:41:12.972Z,19.86
2019-02-28T08:42:12.970Z,19.66
2019-02-28T08:43:13.446Z,19.69
2019-02-28T08:44:12.946Z,19.56
2019-02-28T08:45:12.944Z,19.68
2019-02-28T08:46:13.840Z,19.66
2019-02-28T08:47:12.915Z,19.39
2019-02-28T08:48:12.912Z,19.22
2019-02-28T08:49:12.892Z,19.63
2019-02-28T08:50:12.886Z,20.06
2019-02-28T08:51:12.868Z,20.89
2019-02-28T08:52:12.882Z,21.31
2019-02-28T08:53:15.488Z,21.31
2019-02-28T08:54:12.850Z,21.19
2019-02-28T08:55:12.845Z,21.38
2019-02-28T08:56:14.053Z,21.24
2019-02-28T08:57:13.060Z,21.17
2019-02-28T08:58:12.801Z,21.10
2019-02-28T08:59:18.428Z,20.73
2019-02-28T09:00:13.784Z,19.94
2019-02-28T09:01:44.318Z,19.78
2019-02-28T09:02:43.479Z,20.59
2019-02-28T09:04:14.150Z,19.81
2019-02-28T09:05:14.140Z,20.31
2019-02-28T09:06:44.790Z,21.29
2019-02-28T09:07:50.941Z,21.25
2019-02-28T09:09:16.446Z,21.38
2019-02-28T09:10:16.427Z,21.84
2019-02-28T09:11:20.489Z,21.88
2019-02-28T09:12:16.399Z,21.91
2019-02-28T09:13:16.390Z,21.84
2019-02-28T09:14:17.840Z,22.39
2019-02-28T09:15:16.382Z,22.88
2019-02-28T09:16:16.398Z,22.33
2019-02-28T09:17:18.602Z,21.21
2019-02-28T09:18:16.352Z,21.29
2019-02-28T09:19:16.339Z,21.80
2019-02-28T09:20:16.335Z,21.58
2019-02-28T09:21:18.424Z,21.27
2019-02-28T09:22:16.311Z,21.35
2019-02-28T09:23:16.299Z,21.40
2019-02-28T09:24:16.287Z,20.89
2019-02-28T09:25:21.117Z,20.64
2019-02-28T09:26:17.272Z,20.66
2019-02-28T09:27:16.267Z,21.01
2019-02-28T09:28:16.253Z,20.72
2019-02-28T09:29:18.299Z,20.79
2019-02-28T09:30:16.229Z,20.80
2019-02-28T09:31:16.223Z,20.99
2019-02-28T09:32:17.563Z,20.08
2019-02-28T09:33:16.202Z,19.78
2019-02-28T09:34:16.209Z,20.23
2019-02-28T09:35:16.185Z,20.51
2019-02-28T09:36:20.198Z,20.54
2019-02-28T09:37:16.163Z,19.76
2019-02-28T09:38:16.158Z,19.54
2019-02-28T09:39:16.356Z,19.23
2019-02-28T09:40:16.130Z,19.28
2019-02-28T09:41:16.129Z,19.50
2019-02-28T09:42:16.120Z,19.48
2019-02-28T09:43:16.099Z,19.40
2019-02-28T09:44:16.092Z,19.50
2019-02-28T09:45:16.109Z,18.95
2019-02-28T09:46:16.413Z,18.87
2019-02-28T09:47:16.075Z,18.92
2019-02-28T09:48:16.049Z,18.72
2019-02-28T09:49:16.047Z,18.92
2019-02-28T09:50:16.032Z,18.95
2019-02-28T09:51:16.030Z,19.41
2019-02-28T09:52:16.015Z,19.37
2019-02-28T09:53:16.746Z,19.16
2019-02-28T09:54:15.991Z,19.07
2019-02-28T09:55:15.979Z,19.07
2019-02-28T09:56:15.971Z,19.04
2019-02-28T09:57:18.923Z,19.37
2019-02-28T09:58:15.989Z,19.22
2019-02-28T09:59:15.950Z,19.58
2019-02-28T10:00:15.927Z,19.76
2019-02-28T10:01:15.922Z,20.11
2019-02-28T10:02:15.915Z,20.23
2019-02-28T10:03:18.638Z,19.98
2019-02-28T10:04:15.920Z,19.91
2019-02-28T10:05:15.901Z,19.88
2019-02-28T10:06:16.395Z,19.44
2019-02-28T10:07:15.889Z,19.06
2019-02-28T10:08:15.879Z,18.78
2019-02-28T10:09:17.693Z,18.76
2019-02-28T10:10:17.468Z,18.88
2019-02-28T10:11:15.834Z,18.92
2019-02-28T10:12:15.814Z,18.32
2019-02-28T10:13:18.267Z,18.10
2019-02-28T10:14:15.798Z,18.11
2019-02-28T10:15:15.795Z,18.29
2019-02-28T10:16:16.765Z,18.41
2019-02-28T10:17:15.770Z,18.81
2019-02-28T10:18:15.761Z,18.35
2019-02-28T10:19:15.746Z,18.30
2019-02-28T10:20:16.419Z,18.41
2019-02-28T10:21:15.738Z,18.30
2019-02-28T10:22:15.722Z,17.58
2019-02-28T10:23:18.480Z,17.26
2019-02-28T10:24:16.691Z,17.04
2019-02-28T10:25:15.690Z,17.49
2019-02-28T10:26:17.288Z,17.48
2019-02-28T10:27:15.681Z,17.34
2019-02-28T10:28:15.657Z,17.49
2019-02-28T10:29:15.654Z,17.56
2019-02-28T10:30:16.676Z,17.68
2019-02-28T10:31:15.635Z,17.55
2019-02-28T10:32:15.615Z,17.25
2019-02-28T10:33:17.306Z,17.16
2019-02-28T10:34:15.598Z,17.04
2019-02-28T10:35:15.596Z,16.70
2019-02-28T10:36:15.582Z,16.58
2019-02-28T10:37:15.567Z,16.75
2019-02-28T10:38:15.558Z,16.57
2019-02-28T10:39:15.543Z,16.50
2019-02-28T10:40:17.892Z,16.43
2019-02-28T10:41:15.561Z,16.05
2019-02-28T10:42:15.511Z,15.86
2019-02-28T10:43:16.436Z,15.78
2019-02-28T10:44:15.502Z,15.82
2019-02-28T10:45:15.479Z,15.80
2019-02-28T10:46:16.926Z,16.30
2019-02-28T10:47:15.463Z,16.46
2019-02-28T10:48:15.451Z,16.24
2019-02-28T10:49:16.830Z,16.12
2019-02-28T10:50:15.437Z,15.74
2019-02-28T10:51:15.431Z,15.56
2019-02-28T10:52:15.419Z,15.43
2019-02-28T10:53:15.405Z,15.47
2019-02-28T10:54:15.457Z,15.62
2019-02-28T10:55:15.371Z,15.74
2019-02-28T10:56:15.376Z,16.24
2019-02-28T10:57:15.359Z,16.63
2019-02-28T10:58:15.627Z,16.73
2019-02-28T10:59:15.336Z,16.63
2019-02-28T11:00:15.327Z,16.21
2019-02-28T11:01:15.347Z,16.12
2019-02-28T11:02:19.017Z,15.93
2019-02-28T11:03:15.313Z,15.84
2019-02-28T11:04:15.283Z,15.96
2019-02-28T11:05:18.533Z,16.08
2019-02-28T11:06:15.276Z,16.07
2019-02-28T11:07:15.288Z,16.34
2019-02-28T11:08:17.379Z,16.61
2019-02-28T11:09:15.238Z,16.25
2019-02-28T11:10:15.224Z,16.39
2019-02-28T11:11:15.209Z,16.63
2019-02-28T11:12:19.624Z,16.52
2019-02-28T11:13:15.204Z,16.28
2019-02-28T11:14:15.173Z,16.09
2019-02-28T11:15:15.179Z,16.24
2019-02-28T11:16:15.150Z,16.33
2019-02-28T11:17:15.164Z,16.25
2019-02-28T11:18:15.140Z,16.30
2019-02-28T11:19:18.646Z,16.25
2019-02-28T11:20:22.098Z,16.17
2019-02-28T11:21:16.109Z,16.23
2019-02-28T11:22:15.094Z,16.09
2019-02-28T11:23:15.857Z,16.11
2019-02-28T11:24:15.063Z,16.33
2019-02-28T11:25:15.053Z,16.45
2019-02-28T11:26:15.059Z,16.66
2019-02-28T11:27:16.061Z,16.61
2019-02-28T11:28:15.024Z,16.56
2019-02-28T11:29:45.703Z,16.79
2019-02-28T11:30:45.725Z,16.94
2019-02-28T11:32:16.393Z,16.78
2019-02-28T11:33:16.374Z,16.88
2019-02-28T11:34:48.727Z,16.70
2019-02-28T11:35:47.034Z,16.67
2019-02-28T11:36:47.038Z,16.82
2019-02-28T11:37:47.019Z,16.81
2019-02-28T11:38:47.000Z,16.96
2019-02-28T11:39:47.000Z,16.96
2019-02-28T11:40:46.991Z,16.75
2019-02-28T11:41:49.282Z,16.79
2019-02-28T11:42:47.991Z,16.67
2019-02-28T11:43:46.951Z,16.39
2019-02-28T11:44:47.720Z,16.33
2019-02-28T11:45:46.927Z,16.17
2019-02-28T11:46:46.936Z,16.11
2019-02-28T11:47:46.904Z,15.96
2019-02-28T11:48:46.897Z,15.84
2019-02-28T11:49:46.900Z,15.74
2019-02-28T11:50:46.875Z,15.72
2019-02-28T11:51:49.351Z,15.83
2019-02-28T11:52:47.856Z,16.02
2019-02-28T11:53:46.853Z,16.12
2019-02-28T11:54:46.840Z,16.15
2019-02-28T11:55:46.820Z,16.17
2019-02-28T11:56:46.813Z,16.12
2019-02-28T11:57:46.797Z,16.17
2019-02-28T11:58:51.170Z,16.14
2019-02-28T11:59:46.795Z,15.75
2019-02-28T12:00:46.765Z,15.74
2019-02-28T12:01:48.350Z,15.74
2019-02-28T12:02:53.117Z,15.60
2019-02-28T12:03:47.739Z,15.67
2019-02-28T12:04:46.731Z,15.72
2019-02-28T12:05:50.092Z,15.65
2019-02-28T12:06:46.723Z,15.65
2019-02-28T12:07:46.723Z,15.69
2019-02-28T12:08:46.698Z,15.68
2019-02-28T12:09:46.697Z,15.44
2019-02-28T12:10:46.667Z,15.49
2019-02-28T12:11:46.659Z,15.65
2019-02-28T12:12:46.641Z,15.62
2019-02-28T12:13:46.625Z,15.64
2019-02-28T12:14:46.615Z,15.94
2019-02-28T12:15:47.274Z,16.00
2019-02-28T12:16:46.599Z,16.17
2019-02-28T12:17:46.597Z,16.35
2019-02-28T12:18:46.571Z,16.46
2019-02-28T12:19:47.632Z,16.31
2019-02-28T12:20:46.559Z,16.33
2019-02-28T12:21:46.546Z,16.27
2019-02-28T12:22:49.318Z,16.23
2019-02-28T12:23:46.530Z,16.28
2019-02-28T12:24:46.507Z,16.12
2019-02-28T12:25:46.503Z,16.01
2019-02-28T12:26:49.307Z,16.09
2019-02-28T12:27:47.483Z,16.33
2019-02-28T12:28:46.472Z,16.11
2019-02-28T12:29:49.261Z,16.05
2019-02-28T12:30:46.458Z,15.92
2019-02-28T12:31:46.441Z,15.90
2019-02-28T12:32:46.479Z,15.50
2019-02-28T12:33:46.411Z,15.32
2019-02-28T12:34:46.402Z,15.16
2019-02-28T12:35:46.391Z,14.98
2019-02-28T12:36:49.303Z,14.89
2019-02-28T12:37:46.373Z,14.89
2019-02-28T12:38:46.365Z,14.89
2019-02-28T12:39:46.367Z,14.95
2019-02-28T12:40:49.315Z,14.99
2019-02-28T12:41:46.354Z,15.06
2019-02-28T12:42:46.384Z,15.17
2019-02-28T12:43:46.309Z,15.17
2019-02-28T12:44:48.837Z,15.17
2019-02-28T12:45:47.324Z,15.27
2019-02-28T12:46:46.275Z,15.13
2019-02-28T12:47:46.276Z,15.19
2019-02-28T12:48:48.367Z,15.17
2019-02-28T12:49:46.241Z,15.31
2019-02-28T12:50:46.233Z,15.34
2019-02-28T12:51:46.215Z,15.36
2019-02-28T12:52:48.842Z,15.36
2019-02-28T12:53:46.203Z,15.38
2019-02-28T12:54:46.188Z,15.21
2019-02-28T12:55:46.179Z,15.03
2019-02-28T12:56:47.809Z,14.99
2019-02-28T12:57:46.184Z,14.80
2019-02-28T12:58:46.168Z,14.89
2019-02-28T12:59:47.057Z,14.73
2019-02-28T13:00:46.120Z,14.91
2019-02-28T13:01:46.103Z,14.72
2019-02-28T13:02:47.178Z,14.77
2019-02-28T13:03:46.091Z,14.78
2019-02-28T13:04:46.091Z,14.73
2019-02-28T13:05:48.035Z,14.72
2019-02-28T13:06:46.060Z,14.72
2019-02-28T13:07:46.057Z,14.62
2019-02-28T13:08:46.061Z,14.55
2019-02-28T13:09:48.181Z,14.40
2019-02-28T13:10:47.009Z,14.43
2019-02-28T13:11:46.003Z,14.43
2019-02-28T13:12:48.953Z,14.54
2019-02-28T13:13:45.979Z,14.54
2019-02-28T13:14:45.985Z,14.68
2019-02-28T13:15:46.820Z,14.54
2019-02-28T13:16:45.955Z,14.45
2019-02-28T13:17:45.973Z,14.52
2019-02-28T13:18:45.935Z,14.45
2019-02-28T13:19:45.919Z,14.39
2019-02-28T13:20:45.910Z,14.33
2019-02-28T13:21:46.922Z,14.27
2019-02-28T13:22:45.879Z,14.33
2019-02-28T13:23:45.877Z,14.18
2019-02-28T13:24:47.576Z,14.10
2019-02-28T13:25:45.854Z,14.12
2019-02-28T13:26:45.951Z,14.06
2019-02-28T13:27:46.210Z,14.10
2019-02-28T13:28:45.867Z,13.99
2019-02-28T13:29:45.810Z,14.07
2019-02-28T13:30:50.382Z,13.95
2019-02-28T13:31:46.808Z,13.99
2019-02-28T13:32:45.788Z,13.99
2019-02-28T13:33:48.571Z,13.92
2019-02-28T13:34:46.759Z,13.88
2019-02-28T13:35:47.368Z,13.73
2019-02-28T13:36:45.739Z,13.64
2019-02-28T13:37:45.740Z,13.52
2019-02-28T13:38:45.730Z,13.48
2019-02-28T13:39:45.725Z,13.48
2019-02-28T13:40:45.943Z,13.48